createdAt,value
2022-08-10T00:00:35.064Z,99.90
2022-08-10T00:03:02.700Z,99.90
2022-08-10T00:05:43.675Z,99.90
2022-08-10T00:08:23.700Z,99.90
2022-08-10T00:10:55.426Z,99.90
2022-08-10T00:13:23.994Z,99.90
2022-08-10T00:15:53.918Z,99.90
2022-08-10T00:18:34.643Z,99.90
2022-08-10T00:21:07.539Z,99.90
2022-08-10T00:23:35.499Z,99.90
2022-08-10T00:26:02.564Z,99.90
2022-08-10T00:28:29.349Z,99.90
2022-08-10T00:30:56.544Z,99.90
2022-08-10T00:33:23.302Z,99.90
2022-08-10T00:35:50.579Z,99.90
2022-08-10T00:38:17.622Z,99.90
2022-08-10T00:40:44.329Z,99.90
2022-08-10T00:43:11.019Z,99.90
2022-08-10T00:45:37.904Z,99.90
2022-08-10T00:48:04.817Z,99.90
2022-08-10T00:50:31.804Z,99.90
2022-08-10T00:52:59.020Z,99.90
2022-08-10T00:55:26.208Z,99.90
2022-08-10T00:57:55.439Z,99.90
2022-08-10T01:00:25.991Z,99.90
2022-08-10T01:02:53.163Z,99.90
2022-08-10T01:05:21.531Z,99.90
2022-08-10T01:08:06.323Z,99.90
2022-08-10T01:10:53.515Z,99.90
2022-08-10T01:13:47.952Z,99.90
2022-08-10T01:16:29.736Z,99.90
2022-08-10T01:19:22.603Z,99.90
2022-08-10T01:22:12.732Z,99.90
2022-08-10T01:24:53.911Z,99.90
2022-08-10T01:27:42.736Z,99.90
2022-08-10T01:30:14.232Z,99.90
2022-08-10T01:32:40.875Z,99.90
2022-08-10T01:35:30.877Z,99.90
2022-08-10T01:38:25.235Z,99.90
2022-08-10T01:41:00.010Z,99.90
2022-08-10T01:43:28.201Z,99.90
2022-08-10T01:45:59.511Z,99.90
2022-08-10T01:48:31.882Z,99.90
2022-08-10T01:51:02.440Z,99.90
2022-08-10T01:53:55.551Z,99.90
2022-08-10T01:56:25.154Z,99.90
2022-08-10T01:59:05.936Z,99.90
2022-08-10T02:01:39.676Z,99.90
2022-08-10T02:04:09.766Z,99.90
2022-08-10T02:06:43.297Z,99.90
2022-08-10T02:09:14.040Z,99.90
2022-08-10T02:12:06.546Z,99.90
2022-08-10T02:14:34.263Z,99.90
2022-08-10T02:17:04.710Z,99.90
2022-08-10T02:19:34.604Z,99.90
2022-08-10T02:58:43.939Z,99.90
2022-08-10T03:01:18.560Z,99.90
2022-08-10T03:03:52.832Z,99.90
2022-08-10T03:06:25.314Z,99.90
2022-08-10T03:08:52.946Z,99.90
2022-08-10T03:12:35.141Z,99.90
2022-08-10T03:14:15.027Z,99.90
2022-08-10T03:16:42.781Z,99.90
2022-08-10T03:20:34.754Z,99.90
2022-08-10T03:21:59.267Z,99.90
2022-08-10T03:24:32.691Z,99.90
2022-08-10T03:27:00.867Z,99.90
2022-08-10T03:29:29.952Z,99.90
2022-08-10T03:32:17.994Z,99.90
2022-08-10T03:34:45.010Z,99.90
2022-08-10T03:37:11.743Z,99.90
2022-08-10T03:39:38.545Z,99.90
2022-08-10T03:42:07.947Z,99.90
2022-08-10T03:44:35.834Z,99.90
2022-08-10T03:47:15.938Z,99.90
2022-08-10T03:49:46.611Z,99.90
2022-08-10T03:52:15.251Z,99.90
2022-08-10T03:54:42.853Z,99.90
2022-08-10T03:57:10.678Z,99.90
2022-08-10T03:59:38.209Z,99.90
2022-08-10T04:02:47.142Z,99.90
2022-08-10T04:04:53.184Z,99.90
2022-08-10T04:07:21.506Z,99.90
2022-08-10T04:09:54.304Z,99.90
2022-08-10T04:12:23.131Z,99.90
2022-08-10T04:14:52.985Z,99.90
2022-08-10T04:18:05.115Z,99.90
2022-08-10T04:20:34.193Z,99.90
2022-08-10T04:23:06.387Z,99.90
2022-08-10T04:25:33.818Z,99.90
2022-08-10T04:28:01.111Z,99.90
2022-08-10T04:30:31.946Z,99.90
2022-08-10T04:33:01.200Z,99.90
2022-08-10T04:35:30.049Z,99.90
2022-08-10T04:37:58.182Z,99.90
2022-08-10T04:40:30.232Z,99.90
2022-08-10T04:43:11.264Z,99.90
2022-08-10T04:45:47.640Z,99.90
2022-08-10T04:48:40.839Z,99.90
2022-08-10T04:51:05.857Z,99.90
2022-08-10T04:53:32.621Z,99.90
2022-08-10T04:55:59.305Z,99.90
2022-08-10T04:58:26.018Z,99.90
2022-08-10T05:00:52.865Z,99.90
2022-08-10T05:03:19.702Z,99.90
2022-08-10T05:05:46.558Z,99.90
2022-08-10T05:08:15.470Z,99.90
2022-08-10T05:10:42.208Z,99.90
2022-08-10T05:13:08.932Z,99.90
2022-08-10T05:15:35.851Z,99.90
2022-08-10T05:18:08.746Z,99.90
2022-08-10T05:20:37.608Z,99.90
2022-08-10T05:23:04.702Z,99.90
2022-08-10T05:25:32.965Z,99.90
2022-08-10T05:28:06.469Z,99.90
2022-08-10T05:30:34.094Z,99.90
2022-08-10T05:33:05.131Z,99.90
2022-08-10T05:35:56.940Z,99.90
2022-08-10T05:38:25.531Z,99.90
2022-08-10T05:40:52.903Z,99.90
2022-08-10T05:43:21.654Z,99.90
2022-08-10T05:46:17.341Z,99.90
2022-08-10T05:48:58.001Z,99.90
2022-08-10T05:51:26.349Z,99.90
2022-08-10T05:54:02.804Z,99.90
2022-08-10T05:56:55.715Z,99.90
2022-08-10T06:00:31.185Z,99.90
2022-08-10T06:02:35.393Z,99.90
2022-08-10T06:05:11.210Z,99.90
2022-08-10T06:07:42.507Z,99.90
2022-08-10T06:10:13.872Z,99.90
2022-08-10T06:13:08.042Z,99.90
2022-08-10T06:15:56.055Z,99.90
2022-08-10T06:18:24.352Z,99.90
2022-08-10T06:20:52.331Z,99.90
2022-08-10T06:23:19.625Z,99.90
2022-08-10T06:26:09.708Z,99.90
2022-08-10T06:28:39.342Z,99.90
2022-08-10T06:31:07.660Z,99.90
2022-08-10T06:33:37.318Z,99.90
2022-08-10T06:36:07.508Z,99.90
2022-08-10T06:38:36.244Z,99.90
2022-08-10T06:41:08.419Z,99.90
2022-08-10T06:43:36.422Z,99.90
2022-08-10T06:46:16.323Z,99.90
2022-08-10T06:48:57.168Z,99.90
2022-08-10T06:51:31.903Z,99.90
2022-08-10T06:54:03.384Z,99.90
2022-08-10T06:56:36.021Z,99.90
2022-08-10T06:59:32.825Z,99.90
2022-08-10T07:02:13.396Z,99.90
2022-08-10T07:04:55.866Z,99.90
2022-08-10T07:07:29.599Z,99.90
2022-08-10T07:09:58.633Z,99.90
2022-08-10T07:12:26.190Z,99.90
2022-08-10T07:14:55.041Z,99.90
2022-08-10T07:17:24.802Z,99.90
2022-08-10T07:20:00.672Z,99.90
2022-08-10T07:23:04.840Z,99.90
2022-08-10T07:25:21.456Z,99.90
2022-08-10T07:28:00.081Z,99.90
2022-08-10T07:30:32.873Z,99.90
2022-08-10T07:33:01.405Z,99.90
2022-08-10T07:35:37.071Z,99.90
2022-08-10T07:38:15.982Z,99.90
2022-08-10T07:40:43.857Z,99.90
2022-08-10T07:43:12.454Z,99.90
2022-08-10T07:45:40.337Z,99.90
2022-08-10T07:48:16.125Z,99.90
2022-08-10T07:50:45.015Z,99.90
2022-08-10T07:53:17.491Z,99.90
2022-08-10T07:56:05.316Z,99.90
2022-08-10T07:58:48.187Z,99.90
2022-08-10T08:01:22.024Z,99.90
2022-08-10T08:04:05.782Z,99.90
2022-08-10T08:06:39.191Z,99.90
2022-08-10T08:09:06.329Z,99.90
2022-08-10T08:11:33.714Z,99.90
2022-08-10T08:14:02.008Z,99.90
2022-08-10T08:16:30.933Z,99.90
2022-08-10T08:24:05.993Z,99.90
2022-08-10T08:24:37.644Z,99.90
2022-08-10T08:27:05.933Z,99.90
2022-08-10T08:29:35.902Z,99.90
2022-08-10T08:32:04.391Z,99.90
2022-08-10T08:34:34.378Z,99.90
2022-08-10T08:37:02.447Z,99.90
2022-08-10T08:39:31.775Z,99.90
2022-08-10T08:42:10.628Z,99.90
2022-08-10T08:45:15.668Z,99.90
2022-08-10T08:48:19.300Z,99.90
2022-08-10T08:51:10.731Z,99.90
2022-08-10T08:54:02.056Z,99.90
2022-08-10T08:57:08.546Z,99.90
2022-08-10T08:59:57.053Z,99.90
2022-08-10T09:02:54.890Z,99.90
2022-08-10T09:05:31.087Z,99.90
2022-08-10T09:08:36.174Z,99.90
2022-08-10T09:11:19.953Z,99.90
2022-08-10T09:14:08.540Z,99.90
2022-08-10T09:16:48.103Z,99.90
2022-08-10T09:19:46.963Z,99.90
2022-08-10T09:22:26.208Z,99.90
2022-08-10T09:25:37.445Z,99.90
2022-08-10T09:28:07.891Z,99.90
2022-08-10T09:31:10.844Z,99.90
2022-08-10T09:36:24.247Z,99.90
2022-08-10T09:36:54.708Z,99.90
2022-08-10T09:40:12.447Z,99.90
2022-08-10T09:43:23.597Z,99.90
2022-08-10T09:45:58.827Z,99.90
2022-08-10T09:48:38.487Z,99.60
2022-08-10T09:51:42.095Z,99.80
2022-08-10T09:54:43.883Z,99.90
2022-08-10T09:57:44.663Z,99.90
2022-08-10T10:00:19.071Z,99.60
2022-08-10T10:03:39.376Z,99.10
2022-08-10T10:06:33.027Z,99.10
2022-08-10T10:09:10.874Z,99.10
2022-08-10T10:11:46.587Z,98.60
2022-08-10T10:14:13.918Z,98.80
2022-08-10T10:17:10.587Z,98.40
2022-08-10T10:20:02.272Z,98.90
2022-08-10T10:22:43.129Z,98.20
2022-08-10T10:25:22.650Z,97.90
2022-08-10T10:28:10.314Z,98.50
2022-08-10T10:30:50.732Z,97.70
2022-08-10T10:33:33.090Z,97.80
2022-08-10T10:36:01.931Z,97.60
2022-08-10T10:38:38.102Z,97.30
2022-08-10T10:41:57.369Z,97.20
2022-08-10T10:44:43.575Z,97.10
2022-08-10T10:47:36.100Z,96.40
2022-08-10T10:50:20.990Z,96.90
2022-08-10T10:53:15.264Z,96.20
2022-08-10T10:56:15.071Z,95.80
2022-08-10T10:59:16.043Z,95.20
2022-08-10T11:02:36.517Z,94.70
2022-08-10T11:05:40.508Z,95.00
2022-08-10T11:08:28.759Z,94.10
2022-08-10T11:11:59.711Z,93.60
2022-08-10T11:14:29.686Z,94.00
2022-08-10T11:17:18.700Z,93.90
2022-08-10T11:20:15.563Z,93.40
2022-08-10T11:23:02.631Z,92.20
2022-08-10T11:25:39.774Z,92.20
2022-08-10T11:28:36.769Z,92.60
2022-08-10T11:31:16.281Z,91.80
2022-08-10T11:34:48.194Z,92.20
2022-08-10T11:37:02.715Z,91.50
2022-08-10T11:39:55.789Z,91.40
2022-08-10T11:42:36.111Z,91.60
2022-08-10T11:45:10.796Z,91.30
2022-08-10T11:47:49.940Z,90.90
2022-08-10T11:50:28.489Z,91.00
2022-08-10T11:53:17.422Z,90.10
2022-08-10T11:55:49.436Z,90.60
2022-08-10T11:58:36.418Z,91.20
2022-08-10T12:01:06.363Z,90.00
2022-08-10T12:03:36.285Z,91.80
2022-08-10T12:06:06.062Z,89.40
2022-08-10T12:10:03.551Z,91.30
2022-08-10T12:11:27.184Z,88.00
2022-08-10T12:14:20.186Z,93.00
2022-08-10T12:16:51.231Z,87.90
2022-08-10T12:19:24.258Z,89.90
2022-08-10T12:22:06.307Z,90.30
2022-08-10T12:24:48.813Z,88.90
2022-08-10T12:27:37.723Z,86.60
2022-08-10T12:30:07.803Z,85.10
2022-08-10T12:32:53.205Z,85.80
2022-08-10T12:35:37.912Z,85.90
2022-08-10T12:38:24.526Z,83.80
2022-08-10T12:41:00.758Z,86.00
2022-08-10T12:44:06.990Z,83.80
2022-08-10T12:46:53.012Z,83.80
2022-08-10T12:49:28.591Z,84.80
2022-08-10T12:52:34.861Z,84.20
2022-08-10T12:55:05.096Z,79.30
2022-08-10T12:57:35.768Z,80.80
2022-08-10T13:00:04.412Z,81.10
2022-08-10T13:02:36.150Z,80.50
2022-08-10T13:05:04.747Z,79.80
2022-08-10T13:08:25.093Z,82.30
2022-08-10T13:10:24.754Z,79.90
2022-08-10T13:12:54.661Z,76.60
2022-08-10T13:15:50.176Z,78.70
2022-08-10T13:18:23.509Z,78.80
2022-08-10T13:20:52.950Z,78.30
2022-08-10T13:23:27.221Z,74.50
2022-08-10T13:25:57.974Z,77.50
2022-08-10T13:28:55.113Z,78.70
2022-08-10T13:32:08.961Z,82.30
2022-08-10T13:34:42.333Z,76.60
2022-08-10T13:37:17.004Z,79.60
2022-08-10T13:39:59.441Z,78.90
2022-08-10T13:42:32.188Z,77.50
2022-08-10T13:45:15.268Z,77.70
2022-08-10T13:47:48.655Z,73.90
2022-08-10T13:50:33.740Z,76.50
2022-08-10T13:53:09.937Z,79.10
2022-08-10T13:55:54.021Z,73.50
2022-08-10T13:58:23.535Z,72.80
2022-08-10T14:00:50.676Z,76.10
2022-08-10T14:03:18.700Z,73.00
2022-08-10T14:05:58.188Z,77.50
2022-08-10T14:08:31.035Z,75.90
2022-08-10T14:11:11.832Z,71.80
2022-08-10T14:13:45.634Z,73.20
2022-08-10T14:16:13.481Z,74.60
2022-08-10T14:18:44.483Z,71.20
2022-08-10T14:21:11.841Z,73.40
2022-08-10T14:23:53.154Z,76.10
2022-08-10T14:26:24.997Z,73.80
2022-08-10T14:29:01.983Z,71.00
2022-08-10T14:31:34.741Z,70.00
2022-08-10T14:34:04.761Z,69.00
2022-08-10T14:36:50.823Z,75.30
2022-08-10T14:39:33.498Z,73.70
2022-08-10T14:42:16.757Z,70.60
2022-08-10T14:44:56.799Z,68.80
2022-08-10T14:47:53.510Z,71.50
2022-08-10T14:50:31.830Z,66.60
2022-08-10T14:53:15.535Z,70.20
2022-08-10T14:56:13.743Z,68.90
2022-08-10T14:59:09.894Z,69.50
2022-08-10T15:02:00.128Z,71.10
2022-08-10T15:04:28.759Z,71.10
2022-08-10T15:06:59.653Z,68.70
2022-08-10T15:09:59.172Z,66.50
2022-08-10T15:12:27.209Z,66.10
2022-08-10T15:14:58.329Z,66.40
2022-08-10T15:17:34.708Z,65.70
2022-08-10T15:20:13.579Z,67.30
2022-08-10T15:22:50.333Z,66.10
2022-08-10T15:25:24.809Z,64.30
2022-08-10T15:28:11.855Z,67.10
2022-08-10T15:30:58.643Z,65.50
2022-08-10T15:33:57.079Z,67.50
2022-08-10T15:37:36.704Z,69.00
2022-08-10T15:40:25.650Z,69.30
2022-08-10T15:42:55.137Z,67.70
2022-08-10T15:45:25.534Z,66.40
2022-08-10T15:48:02.992Z,67.10
2022-08-10T15:50:39.799Z,63.30
2022-08-10T15:53:28.203Z,64.00
2022-08-10T15:55:58.497Z,63.70
2022-08-10T15:58:52.702Z,67.20
2022-08-10T16:02:12.488Z,66.20
2022-08-10T16:05:09.723Z,64.70
2022-08-10T16:07:45.281Z,65.50
2022-08-10T16:10:25.346Z,63.00
2022-08-10T16:12:59.601Z,64.90
2022-08-10T16:15:28.865Z,64.00
2022-08-10T16:18:01.858Z,63.70
2022-08-10T16:20:53.407Z,66.80
2022-08-10T16:23:42.343Z,63.20
2022-08-10T16:26:15.592Z,66.30
2022-08-10T16:28:57.656Z,65.20
2022-08-10T16:31:27.773Z,65.60
2022-08-10T16:33:57.921Z,65.50
2022-08-10T16:36:49.312Z,67.40
2022-08-10T16:39:58.201Z,70.50
2022-08-10T16:42:24.545Z,68.70
2022-08-10T16:45:05.051Z,69.80
2022-08-10T16:47:37.254Z,70.10
2022-08-10T16:50:07.904Z,67.70
2022-08-10T16:52:35.939Z,68.80
2022-08-10T16:55:24.030Z,68.40
2022-08-10T16:57:54.294Z,68.50
2022-08-10T17:00:22.979Z,69.40
2022-08-10T17:02:53.541Z,68.90
2022-08-10T17:06:01.782Z,70.50
2022-08-10T17:08:12.828Z,71.70
2022-08-10T17:10:41.575Z,71.80
2022-08-10T17:13:10.656Z,69.10
2022-08-10T17:15:49.951Z,69.30
2022-08-10T17:18:27.471Z,70.60
2022-08-10T17:21:04.954Z,69.40
2022-08-10T17:23:35.148Z,70.00
2022-08-10T17:26:08.178Z,69.90
2022-08-10T17:28:41.058Z,69.10
2022-08-10T17:31:53.190Z,72.00
2022-08-10T17:34:17.464Z,70.90
2022-08-10T17:36:49.302Z,70.00
2022-08-10T17:39:20.677Z,71.80
2022-08-10T17:41:51.826Z,72.00
2022-08-10T17:44:19.184Z,71.70
2022-08-10T17:46:46.831Z,72.30
2022-08-10T17:49:18.863Z,72.10
2022-08-10T17:51:50.652Z,73.30
2022-08-10T17:54:47.037Z,73.50
2022-08-10T17:57:20.954Z,71.50
2022-08-10T17:59:50.735Z,72.60
2022-08-10T18:02:26.683Z,72.00
2022-08-10T18:04:58.670Z,73.40
2022-08-10T18:07:35.056Z,73.20
2022-08-10T18:10:04.127Z,71.70
2022-08-10T18:13:05.794Z,74.00
2022-08-10T18:15:38.082Z,74.90
2022-08-10T18:18:10.905Z,74.40
2022-08-10T18:20:39.751Z,74.40
2022-08-10T18:23:08.123Z,74.50
2022-08-10T18:25:38.392Z,74.70
2022-08-10T18:28:09.274Z,75.60
2022-08-10T18:30:46.032Z,75.70
2022-08-10T18:33:14.341Z,75.60
2022-08-10T18:35:44.001Z,76.40
2022-08-10T18:38:13.171Z,76.60
2022-08-10T18:40:44.084Z,75.00
2022-08-10T18:44:07.263Z,75.20
2022-08-10T18:46:06.694Z,76.30
2022-08-10T18:48:40.699Z,76.70
2022-08-10T18:51:09.081Z,77.30
2022-08-10T18:53:50.658Z,77.00
2022-08-10T18:56:17.278Z,77.90
2022-08-10T18:58:50.263Z,87.10
2022-08-10T19:01:17.628Z,79.30
2022-08-10T19:04:19.491Z,79.60
2022-08-10T19:06:51.938Z,79.60
2022-08-10T19:09:47.618Z,79.40
2022-08-10T19:12:30.194Z,79.10
2022-08-10T19:15:10.306Z,80.20
2022-08-10T19:18:12.416Z,80.50
2022-08-10T19:21:02.210Z,80.20
2022-08-10T19:23:41.262Z,81.30
2022-08-10T19:26:36.500Z,79.80
2022-08-10T19:29:04.791Z,81.30
2022-08-10T19:31:45.044Z,81.60
2022-08-10T19:35:00.884Z,81.60
2022-08-10T19:38:04.348Z,82.10
2022-08-10T19:40:44.318Z,82.60
2022-08-10T19:43:20.654Z,83.20
2022-08-10T19:46:27.880Z,83.70
2022-08-10T19:49:14.018Z,83.50
2022-08-10T19:52:19.503Z,84.10
2022-08-10T19:55:17.421Z,86.50
2022-08-10T19:57:58.388Z,86.30
2022-08-10T20:00:49.244Z,86.30
2022-08-10T20:03:15.902Z,86.80
2022-08-10T20:06:13.302Z,86.10
2022-08-10T20:08:53.351Z,86.90
2022-08-10T20:11:44.951Z,87.00
2022-08-10T20:14:50.515Z,86.70
2022-08-10T20:17:51.470Z,88.10
2022-08-10T20:20:36.065Z,89.40
2022-08-10T20:23:12.579Z,89.80
2022-08-10T20:25:42.388Z,89.60
2022-08-10T20:28:37.091Z,90.00
2022-08-10T20:31:08.466Z,89.80
2022-08-10T20:33:57.507Z,90.20
2022-08-10T20:36:30.552Z,90.60
2022-08-10T20:39:09.320Z,90.90
2022-08-10T20:41:52.623Z,91.00
2022-08-10T20:44:58.305Z,91.40
2022-08-10T20:47:57.603Z,91.90
2022-08-10T20:50:43.999Z,91.80
2022-08-10T20:53:14.627Z,92.00
2022-08-10T20:55:53.661Z,91.90
2022-08-10T20:59:00.225Z,92.70
2022-08-10T21:02:19.848Z,92.80
2022-08-10T21:05:10.208Z,92.90
2022-08-10T21:08:12.007Z,93.30
2022-08-10T21:11:00.128Z,93.70
2022-08-10T21:13:48.667Z,93.80
2022-08-10T21:16:20.331Z,93.90
2022-08-10T21:19:15.331Z,94.20
2022-08-10T21:22:01.317Z,94.00
2022-08-10T21:24:35.647Z,94.50
2022-08-10T21:27:22.465Z,94.60
2022-08-10T21:30:12.182Z,94.80
2022-08-10T21:32:45.578Z,95.10
2022-08-10T21:35:37.019Z,94.70
2022-08-10T21:38:24.038Z,94.60
2022-08-10T21:41:17.070Z,95.00
2022-08-10T21:44:23.406Z,95.50
2022-08-10T21:48:07.301Z,95.60
2022-08-10T21:50:53.019Z,96.10
2022-08-10T21:56:59.539Z,96.50
2022-08-10T22:00:05.612Z,96.50
2022-08-10T22:02:58.216Z,96.90
2022-08-10T22:05:47.772Z,97.10
2022-08-10T22:08:38.509Z,97.10
2022-08-10T22:11:28.085Z,98.30
2022-08-10T22:14:15.473Z,98.90
2022-08-10T22:18:10.693Z,97.20
2022-08-10T22:20:27.186Z,96.30
2022-08-10T22:23:27.382Z,96.80
2022-08-10T22:26:40.827Z,98.50
2022-08-10T22:29:42.362Z,97.60
2022-08-10T22:31:27.693Z,96.20
2022-08-10T22:32:43.788Z,97.90
2022-08-10T22:35:55.075Z,98.60
2022-08-10T22:38:59.006Z,99.20
2022-08-10T22:42:29.618Z,98.90
2022-08-10T22:45:36.363Z,98.70
2022-08-10T22:48:24.523Z,99.30
2022-08-10T22:50:57.891Z,99.40
2022-08-10T22:53:52.221Z,99.00
2022-08-10T22:56:39.290Z,99.20
2022-08-10T22:59:08.115Z,99.60
2022-08-10T23:02:08.519Z,99.50
2022-08-10T23:04:49.171Z,99.90
2022-08-10T23:07:18.730Z,99.90
2022-08-10T23:09:50.980Z,99.90
2022-08-10T23:12:24.278Z,99.90
2022-08-10T23:15:12.895Z,99.90
2022-08-10T23:18:02.158Z,99.90
2022-08-10T23:20:30.718Z,99.90
2022-08-10T23:23:07.426Z,99.90
2022-08-10T23:25:56.489Z,99.90
2022-08-10T23:28:58.150Z,99.90
2022-08-10T23:31:13.579Z,99.90
2022-08-10T23:33:42.444Z,99.90
2022-08-10T23:36:33.596Z,99.90
2022-08-10T23:39:25.891Z,99.90
2022-08-10T23:41:53.699Z,99.90
2022-08-10T23:44:22.359Z,99.90
2022-08-10T23:46:50.214Z,99.90
2022-08-10T23:49:18.602Z,99.90
2022-08-10T23:51:55.519Z,99.90
2022-08-10T23:54:24.998Z,99.90
2022-08-10T23:56:56.726Z,99.90
2022-08-10T23:59:31.625Z,99.90
